Chippewa Falls, WI

10:58 PM CDT on August 31, 2016 (GMT -0500)
Lake Wissota | | Change Station

Elev 925 ft 44.98 °N, 91.34 °W | Updated 6 seconds ago

Clear
Clear
61.5 °F
Feels Like 61.5 °F
N
1.1
Wind Variable Wind from North
Gusts 0.0 mph

Today
High -- | Low -- °F
--% Chance of Precip.
Yesterday
High -- | Low -- °F
Precip. -- in
Pressure 30.20 in
Visibility 10.0 miles
Clouds Clear
Dew Point 57 °F
Humidity 86%
Rainfall 0.00 in
Snow Depth Not available.
6:27 AM 7:43 PM
Waning Crescent, 0% visible
METAR KEAU 010356Z AUTO 02003KT 10SM CLR 14/13 A3020 RMK AO2 SLPNO T01440128
Pressure 30.20 in
Visibility 10.0 miles
Clouds Clear
Dew Point 57 °F
Humidity 86%
Rainfall 0.00 in
Snow Depth Not available.
6:27 AM 7:43 PM
Waning Crescent, 0% visible
METAR KEAU 010356Z AUTO 02003KT 10SM CLR 14/13 A3020 RMK AO2 SLPNO T01440128

10-Day Weather Forecast

Almanac

Astronomy

Aug. 31, 2016 Rise Set
Actual Time
Civil Twilight
Nautical Twilight
Astronomical Twilight
Moon
Length of Visible Light
Length of Day
Tomorrow will be .
, % of the Moon is Illuminated

Today's Extremes

State Highs State Lows

Community

WunderPhotos

Upload Photos

1,936,291 photos uploaded!

WunderBlog® & News

Nearby

Air Quality

  Air Quality AQ Index Pollutant
Not available.

Snow Depth

Station Depth Elevation

Earthquake Activity

City Distance Mag. Time & Date
Minimum magnitude displayed is 2.5.

Coastal Water Temperatures

Place Temperature

Stations

Nearby Weather Stations

Station Location Temp. Windchill Dew Point Humidity Wind Precip. Elev Updated Type
                   

Watches & Warnings

There are currently no watches in effect.